createdAt,value
2022-12-22T00:00:20.077Z,10.27
2022-12-22T00:03:10.593Z,9.15
2022-12-22T00:06:01.254Z,9.40
2022-12-22T00:08:51.647Z,11.05
2022-12-22T00:11:42.613Z,19.05
2022-12-22T00:14:33.952Z,14.38
2022-12-22T00:17:35.692Z,9.77
2022-12-22T00:20:31.276Z,10.30
2022-12-22T00:23:22.312Z,6.65
2022-12-22T00:26:13.302Z,3.90
2022-12-22T00:29:04.035Z,4.60
2022-12-22T00:31:55.351Z,9.13
2022-12-22T00:34:46.972Z,8.07
2022-12-22T00:37:37.605Z,7.78
2022-12-22T00:40:35.318Z,8.73
2022-12-22T00:43:25.933Z,8.93
2022-12-22T00:46:18.046Z,8.77
2022-12-22T00:49:09.772Z,7.93
2022-12-22T00:52:00.346Z,7.32
2022-12-22T00:54:50.736Z,10.68
2022-12-22T00:57:45.750Z,8.15
2022-12-22T01:00:37.168Z,9.20
2022-12-22T01:03:29.314Z,10.10
2022-12-22T01:06:21.115Z,7.82
2022-12-22T01:09:11.596Z,9.70
2022-12-22T01:12:02.226Z,8.40
2022-12-22T01:14:52.724Z,9.68
2022-12-22T01:17:43.368Z,8.07
2022-12-22T01:20:34.089Z,7.85
2022-12-22T01:23:28.268Z,6.38
2022-12-22T01:26:18.870Z,6.10
2022-12-22T01:29:09.467Z,6.00
2022-12-22T01:32:00.858Z,4.50
2022-12-22T01:34:51.453Z,5.28
2022-12-22T01:37:42.034Z,3.42
2022-12-22T01:40:35.580Z,4.18
2022-12-22T01:43:36.554Z,3.58
2022-12-22T01:46:37.914Z,4.78
2022-12-22T01:49:32.304Z,5.75
2022-12-22T01:52:24.129Z,4.93
2022-12-22T01:55:19.603Z,8.05
2022-12-22T01:58:10.934Z,6.65
2022-12-22T02:01:03.529Z,6.90
2022-12-22T02:03:54.654Z,6.68
2022-12-22T02:06:57.916Z,8.38
2022-12-22T02:10:02.169Z,8.95
2022-12-22T02:13:01.158Z,10.63
2022-12-22T02:15:58.297Z,7.15
2022-12-22T02:18:56.045Z,8.25
2022-12-22T02:21:53.068Z,7.50
2022-12-22T02:24:53.212Z,7.07
2022-12-22T02:27:45.849Z,6.38
2022-12-22T02:30:36.441Z,8.48
2022-12-22T02:33:27.133Z,8.35
2022-12-22T02:36:24.891Z,7.45
2022-12-22T02:39:26.984Z,8.45
2022-12-22T02:42:26.231Z,7.22
2022-12-22T02:45:29.600Z,6.03
2022-12-22T02:48:25.241Z,6.10
2022-12-22T02:51:23.817Z,5.22
2022-12-22T02:54:15.957Z,5.97
2022-12-22T02:57:06.885Z,4.10
2022-12-22T02:59:57.481Z,4.07
2022-12-22T03:02:48.956Z,5.20
2022-12-22T03:05:39.571Z,5.80
2022-12-22T03:08:29.941Z,6.63
2022-12-22T03:11:20.450Z,5.57
2022-12-22T03:14:10.891Z,5.47
2022-12-22T03:17:01.528Z,5.05
2022-12-22T03:19:52.852Z,7.75
2022-12-22T03:22:43.353Z,6.82
2022-12-22T03:25:34.198Z,3.75
2022-12-22T03:28:08.432Z,6.65
2022-12-22T03:30:40.830Z,4.20
2022-12-22T03:33:13.131Z,4.15
2022-12-22T03:35:46.149Z,3.95
2022-12-22T03:38:18.590Z,5.13
2022-12-22T03:40:51.287Z,5.38
2022-12-22T03:43:41.732Z,4.00
2022-12-22T03:46:32.168Z,8.48
2022-12-22T03:49:10.631Z,7.43
2022-12-22T03:51:45.644Z,5.75
2022-12-22T03:54:20.096Z,4.28
2022-12-22T03:56:53.147Z,4.55
2022-12-22T03:59:25.533Z,4.50
2022-12-22T04:01:58.048Z,4.40
2022-12-22T04:04:30.606Z,3.17
2022-12-22T04:07:03.784Z,5.25
2022-12-22T04:09:56.135Z,3.75
2022-12-22T04:12:46.746Z,6.25
2022-12-22T04:15:19.215Z,8.20
2022-12-22T04:17:51.977Z,5.38
2022-12-22T04:20:26.411Z,6.22
2022-12-22T04:22:59.562Z,6.85
2022-12-22T04:25:32.001Z,7.97
2022-12-22T04:28:04.538Z,8.15
2022-12-22T04:30:36.923Z,5.53
2022-12-22T04:33:09.238Z,8.80
2022-12-22T04:35:41.665Z,9.07
2022-12-22T04:38:14.660Z,13.10
2022-12-22T04:40:47.109Z,10.60
2022-12-22T04:43:19.452Z,11.18
2022-12-22T04:45:53.046Z,8.93
2022-12-22T04:48:27.029Z,9.90
2022-12-22T04:51:01.044Z,8.50
2022-12-22T04:53:34.507Z,6.93
2022-12-22T04:56:07.979Z,9.32
2022-12-22T04:58:40.271Z,24.80
2022-12-22T05:01:15.543Z,11.20
2022-12-22T05:03:47.972Z,8.57
2022-12-22T05:06:20.431Z,8.85
2022-12-22T05:08:53.491Z,9.70
2022-12-22T05:11:25.977Z,10.23
2022-12-22T05:14:03.555Z,10.80
2022-12-22T05:16:39.407Z,11.40
2022-12-22T05:19:11.943Z,11.02
2022-12-22T05:21:44.903Z,10.15
2022-12-22T05:24:17.916Z,11.30
2022-12-22T05:26:50.305Z,13.30
2022-12-22T05:29:22.788Z,12.20
2022-12-22T05:31:55.336Z,13.50
2022-12-22T05:34:27.678Z,7.78
2022-12-22T05:37:00.123Z,5.80
2022-12-22T05:39:33.515Z,5.93
2022-12-22T05:42:06.031Z,6.18
2022-12-22T05:44:38.315Z,6.78
2022-12-22T05:47:10.734Z,6.65
2022-12-22T05:49:43.021Z,5.43
2022-12-22T05:52:15.403Z,6.50
2022-12-22T05:54:49.148Z,7.95
2022-12-22T05:57:21.735Z,9.10
2022-12-22T05:59:54.041Z,8.35
2022-12-22T06:02:26.555Z,8.02
2022-12-22T06:04:59.051Z,9.73
2022-12-22T06:07:31.477Z,9.82
2022-12-22T06:10:11.606Z,7.38
2022-12-22T06:12:44.183Z,7.68
2022-12-22T06:15:16.614Z,8.30
2022-12-22T06:17:49.075Z,6.20
2022-12-22T06:20:21.444Z,9.10
2022-12-22T06:22:53.851Z,9.18
2022-12-22T06:25:26.863Z,11.57
2022-12-22T06:27:59.321Z,12.77
2022-12-22T06:30:33.792Z,14.73
2022-12-22T06:33:06.442Z,17.27
2022-12-22T06:35:38.769Z,16.77
2022-12-22T06:38:11.239Z,17.63
2022-12-22T06:40:44.220Z,20.20
2022-12-22T06:43:16.336Z,17.65
2022-12-22T06:45:48.745Z,20.08
2022-12-22T06:48:21.148Z,15.10
2022-12-22T06:50:57.759Z,11.35
2022-12-22T06:53:30.879Z,11.40
2022-12-22T06:56:05.214Z,13.77
2022-12-22T06:58:37.612Z,11.30
2022-12-22T07:01:09.998Z,11.88
2022-12-22T07:03:42.384Z,11.40
2022-12-22T07:06:14.759Z,13.38
2022-12-22T07:08:47.706Z,12.70
2022-12-22T07:11:20.924Z,10.15
2022-12-22T07:13:53.291Z,12.10
2022-12-22T07:16:25.742Z,9.60
2022-12-22T07:18:58.162Z,12.65
2022-12-22T07:21:30.589Z,13.70
2022-12-22T07:24:03.081Z,19.83
2022-12-22T07:26:36.162Z,18.48
2022-12-22T07:29:08.620Z,24.80
2022-12-22T07:31:41.165Z,18.83
2022-12-22T07:34:13.655Z,19.83
2022-12-22T07:36:46.023Z,22.17
2022-12-22T07:39:18.360Z,15.27
2022-12-22T07:42:09.395Z,17.50
2022-12-22T07:44:41.919Z,15.48
2022-12-22T07:47:14.316Z,16.67
2022-12-22T07:50:16.395Z,17.75
2022-12-22T07:52:49.241Z,10.25
2022-12-22T07:55:22.018Z,25.75
2022-12-22T07:57:55.552Z,23.10
2022-12-22T08:00:28.101Z,14.75
2022-12-22T08:03:02.030Z,10.30
2022-12-22T08:05:37.127Z,7.20
2022-12-22T08:08:09.493Z,7.28
2022-12-22T08:10:41.811Z,7.55
2022-12-22T08:13:15.096Z,7.95
2022-12-22T08:15:47.541Z,6.43
2022-12-22T08:18:20.223Z,6.85
2022-12-22T08:20:52.638Z,6.35
2022-12-22T08:23:25.306Z,5.82
2022-12-22T08:26:03.322Z,5.90
2022-12-22T08:28:40.932Z,7.85
2022-12-22T08:31:13.426Z,5.85
2022-12-22T08:33:47.395Z,8.27
2022-12-22T08:36:20.023Z,8.05
2022-12-22T08:38:52.662Z,5.78
2022-12-22T08:41:39.687Z,5.47
2022-12-22T08:44:12.720Z,4.30
2022-12-22T08:46:45.178Z,4.15
2022-12-22T08:49:17.757Z,3.20
2022-12-22T08:51:50.404Z,5.07
2022-12-22T08:54:23.227Z,5.55
2022-12-22T08:56:57.935Z,4.00
2022-12-22T08:59:31.154Z,4.80
2022-12-22T09:02:04.798Z,4.07
2022-12-22T09:04:37.564Z,4.72
2022-12-22T09:07:10.822Z,3.30
2022-12-22T09:09:43.937Z,4.10
2022-12-22T09:12:16.638Z,3.50
2022-12-22T09:14:49.785Z,2.85
2022-12-22T09:17:22.093Z,6.30
2022-12-22T09:19:54.532Z,5.30
2022-12-22T09:22:28.031Z,6.07
2022-12-22T09:25:01.439Z,6.03
2022-12-22T09:27:33.939Z,6.30
2022-12-22T09:30:08.958Z,7.55
2022-12-22T09:32:41.282Z,6.80
2022-12-22T09:35:13.933Z,4.65
2022-12-22T09:37:46.253Z,4.78
2022-12-22T09:40:21.026Z,6.13
2022-12-22T09:42:53.345Z,5.00
2022-12-22T09:45:26.516Z,5.45
2022-12-22T09:48:00.279Z,6.53
2022-12-22T09:50:33.342Z,6.65
2022-12-22T09:53:08.252Z,5.22
2022-12-22T09:55:43.272Z,6.15
2022-12-22T09:58:26.272Z,6.38
2022-12-22T10:01:10.873Z,6.07
2022-12-22T10:03:48.330Z,6.78
2022-12-22T10:06:28.859Z,7.60
2022-12-22T10:09:35.941Z,6.60
2022-12-22T10:12:04.516Z,4.55
2022-12-22T10:14:38.732Z,5.22
2022-12-22T10:17:16.828Z,6.45
2022-12-22T10:19:50.892Z,5.35
2022-12-22T10:22:30.597Z,6.05
2022-12-22T10:27:42.938Z,3.88
2022-12-22T10:30:21.191Z,2.53
2022-12-22T10:33:09.456Z,5.03
2022-12-22T10:35:45.861Z,5.15
2022-12-22T10:38:22.566Z,5.15
2022-12-22T10:41:02.072Z,4.25
2022-12-22T10:43:38.870Z,6.05
2022-12-22T10:46:11.627Z,6.47
2022-12-22T10:48:44.641Z,3.65
2022-12-22T10:51:17.120Z,4.03
2022-12-22T10:53:53.717Z,5.70
2022-12-22T10:56:28.048Z,5.47
2022-12-22T10:59:13.399Z,4.88
2022-12-22T11:01:46.636Z,4.53
2022-12-22T11:04:24.077Z,4.13
2022-12-22T11:06:58.435Z,3.17
2022-12-22T11:09:35.344Z,3.78
2022-12-22T11:12:18.443Z,3.78
2022-12-22T11:14:58.883Z,4.95
2022-12-22T11:17:39.030Z,6.20
2022-12-22T11:20:32.823Z,5.47
2022-12-22T11:23:14.569Z,5.13
2022-12-22T11:26:00.391Z,5.35
2022-12-22T11:28:50.715Z,4.70
2022-12-22T11:31:39.789Z,3.97
2022-12-22T11:34:26.287Z,4.55
2022-12-22T11:37:08.247Z,3.83
2022-12-22T11:39:45.453Z,4.32
2022-12-22T11:42:33.776Z,3.78
2022-12-22T11:45:23.492Z,6.00
2022-12-22T11:51:00.928Z,4.20
2022-12-22T11:54:08.672Z,3.30
2022-12-22T11:56:47.029Z,3.83
2022-12-22T11:59:37.674Z,3.40
2022-12-22T12:02:40.235Z,9.10
2022-12-22T12:05:51.769Z,5.07
2022-12-22T12:08:31.720Z,15.23
2022-12-22T12:11:17.563Z,22.88
2022-12-22T12:13:58.235Z,21.80
2022-12-22T12:16:39.052Z,22.85
2022-12-22T12:19:47.194Z,25.80
2022-12-22T12:22:34.982Z,27.08
2022-12-22T12:25:25.832Z,26.67
2022-12-22T12:28:18.753Z,24.45
2022-12-22T12:30:54.532Z,19.20
2022-12-22T12:33:42.164Z,11.30
2022-12-22T12:36:20.252Z,11.73
2022-12-22T12:39:09.816Z,7.13
2022-12-22T12:44:24.551Z,3.92
2022-12-22T12:47:22.941Z,3.83
2022-12-22T12:50:04.184Z,3.95
2022-12-22T12:53:13.176Z,5.90
2022-12-22T12:56:04.383Z,4.45
2022-12-22T12:59:00.940Z,3.67
2022-12-22T13:01:56.102Z,3.75
2022-12-22T13:05:09.846Z,4.88
2022-12-22T13:08:18.884Z,6.53
2022-12-22T13:12:10.518Z,8.50
2022-12-22T13:14:56.675Z,12.07
2022-12-22T13:17:39.432Z,15.18
2022-12-22T13:20:15.421Z,26.70
2022-12-22T13:22:52.168Z,25.27
2022-12-22T13:25:28.159Z,22.73
2022-12-22T13:28:03.436Z,26.50
2022-12-22T13:30:35.893Z,27.33
2022-12-22T13:33:12.321Z,27.60
2022-12-22T13:35:50.108Z,28.48
2022-12-22T13:38:28.505Z,28.90
2022-12-22T13:41:04.720Z,27.02
2022-12-22T13:43:37.749Z,30.40
2022-12-22T13:46:10.793Z,22.70
2022-12-22T13:48:46.080Z,32.88
2022-12-22T13:51:22.294Z,22.00
2022-12-22T13:54:12.743Z,23.40
2022-12-22T13:56:48.148Z,30.38
2022-12-22T13:59:27.739Z,25.75
2022-12-22T14:02:02.135Z,22.00
2022-12-22T14:04:37.162Z,19.48
2022-12-22T14:07:10.985Z,16.95
2022-12-22T14:09:44.562Z,21.48
2022-12-22T14:12:20.246Z,24.85
2022-12-22T14:14:54.592Z,19.15
2022-12-22T14:17:29.753Z,21.80
2022-12-22T14:20:16.060Z,19.25
2022-12-22T14:22:52.785Z,17.75
2022-12-22T14:25:30.416Z,9.98
2022-12-22T14:28:06.168Z,11.80
2022-12-22T14:30:44.806Z,14.05
2022-12-22T14:33:27.331Z,8.65
2022-12-22T14:36:15.028Z,9.68
2022-12-22T14:38:48.817Z,11.68
2022-12-22T14:41:43.548Z,8.80
2022-12-22T14:44:19.620Z,12.02
2022-12-22T14:47:14.613Z,13.38
2022-12-22T14:49:50.613Z,14.27
2022-12-22T14:52:28.629Z,12.68
2022-12-22T14:55:02.934Z,11.25
2022-12-22T14:57:37.766Z,13.13
2022-12-22T15:00:32.099Z,12.23
2022-12-22T15:03:29.439Z,12.77
2022-12-22T15:06:24.533Z,17.27
2022-12-22T15:10:03.801Z,18.98
2022-12-22T15:12:18.705Z,19.60
2022-12-22T15:14:51.081Z,17.73
2022-12-22T15:17:25.194Z,17.85
2022-12-22T15:19:58.967Z,16.98
2022-12-22T15:22:31.375Z,17.67
2022-12-22T15:25:12.653Z,14.95
2022-12-22T15:27:45.050Z,15.82
2022-12-22T15:30:25.966Z,26.65
2022-12-22T15:32:58.328Z,17.95
2022-12-22T15:35:33.215Z,21.95
2022-12-22T15:38:11.592Z,23.55
2022-12-22T15:40:44.920Z,24.17
2022-12-22T15:43:53.501Z,22.85
2022-12-22T15:46:14.355Z,21.60
2022-12-22T15:48:46.804Z,20.42
2022-12-22T15:51:23.918Z,20.83
2022-12-22T15:53:58.014Z,21.92
2022-12-22T15:56:32.893Z,24.25
2022-12-22T15:59:05.751Z,25.83
2022-12-22T16:01:38.315Z,23.10
2022-12-22T16:04:10.830Z,24.88
2022-12-22T16:06:43.830Z,25.63
2022-12-22T16:09:21.500Z,26.52
2022-12-22T16:11:54.914Z,22.58
2022-12-22T16:14:27.515Z,26.17
2022-12-22T16:16:59.824Z,26.27
2022-12-22T16:19:32.703Z,25.20
2022-12-22T16:22:05.086Z,24.73
2022-12-22T16:24:38.691Z,25.00
2022-12-22T16:27:13.215Z,24.35
2022-12-22T16:29:50.740Z,27.85
2022-12-22T16:32:26.092Z,32.08
2022-12-22T16:35:13.195Z,39.40
2022-12-22T16:37:48.038Z,35.70
2022-12-22T16:40:20.349Z,33.17
2022-12-22T16:45:50.260Z,23.30
2022-12-22T16:48:29.291Z,22.92
2022-12-22T16:51:02.059Z,17.25
2022-12-22T16:53:34.407Z,27.48
2022-12-22T16:56:14.000Z,26.25
2022-12-22T16:58:47.584Z,27.02
2022-12-22T17:01:34.596Z,25.95
2022-12-22T17:04:10.887Z,30.35
2022-12-22T17:06:45.782Z,31.35
2022-12-22T17:09:22.915Z,29.80
2022-12-22T17:11:55.463Z,27.33
2022-12-22T17:14:33.510Z,33.15
2022-12-22T17:17:06.118Z,41.42
2022-12-22T17:19:38.436Z,39.17
2022-12-22T17:22:21.578Z,40.35
2022-12-22T17:24:56.825Z,40.03
2022-12-22T17:27:30.951Z,33.60
2022-12-22T17:30:06.663Z,29.58
2022-12-22T17:32:39.018Z,33.83
2022-12-22T17:35:15.323Z,37.25
2022-12-22T17:37:48.362Z,31.02
2022-12-22T17:40:23.915Z,30.15
2022-12-22T17:42:57.565Z,36.67
2022-12-22T17:45:30.715Z,26.35
2022-12-22T17:48:03.343Z,26.48
2022-12-22T17:50:35.891Z,22.75
2022-12-22T17:53:12.477Z,19.85
2022-12-22T17:58:38.373Z,27.60
2022-12-22T18:01:19.574Z,32.03
2022-12-22T18:03:52.785Z,28.63
2022-12-22T18:06:27.829Z,38.03
2022-12-22T18:09:01.460Z,32.15
2022-12-22T18:11:34.088Z,28.73
2022-12-22T18:14:06.518Z,31.60
2022-12-22T18:16:39.509Z,32.70
2022-12-22T18:19:11.882Z,29.02
2022-12-22T18:21:44.459Z,27.95
2022-12-22T18:24:18.688Z,24.92
2022-12-22T18:26:51.005Z,26.33
2022-12-22T18:29:23.300Z,31.10
2022-12-22T18:31:56.400Z,26.08
2022-12-22T18:34:28.854Z,24.27
2022-12-22T18:37:01.645Z,21.15
2022-12-22T18:39:35.497Z,21.58
2022-12-22T18:42:19.572Z,21.20
2022-12-22T18:44:52.008Z,22.90
2022-12-22T18:47:25.003Z,25.85
2022-12-22T18:50:02.073Z,32.25
2022-12-22T18:52:34.480Z,25.55
2022-12-22T18:55:14.569Z,30.48
2022-12-22T18:57:47.670Z,26.73
2022-12-22T19:00:22.519Z,32.97
2022-12-22T19:02:58.563Z,24.73
2022-12-22T19:05:33.113Z,23.48
2022-12-22T19:08:05.618Z,34.88
2022-12-22T19:10:44.217Z,54.70
2022-12-22T19:13:25.432Z,51.58
2022-12-22T19:15:58.206Z,43.10
2022-12-22T19:18:31.289Z,42.97
2022-12-22T19:21:04.053Z,23.05
2022-12-22T19:23:36.395Z,28.73
2022-12-22T19:26:19.389Z,29.85
2022-12-22T19:28:54.281Z,27.33
2022-12-22T19:31:29.501Z,37.20
2022-12-22T19:34:06.024Z,28.63
2022-12-22T19:36:38.371Z,29.23
2022-12-22T19:39:10.677Z,34.53
2022-12-22T19:41:45.870Z,38.50
2022-12-22T19:44:23.016Z,46.47
2022-12-22T19:46:58.391Z,41.88
2022-12-22T19:49:31.385Z,44.13
2022-12-22T19:52:03.977Z,34.05
2022-12-22T19:54:36.788Z,30.00
2022-12-22T19:57:17.419Z,30.42
2022-12-22T19:59:53.445Z,23.00
2022-12-22T20:02:27.547Z,21.25
2022-12-22T20:05:00.940Z,23.67
2022-12-22T20:07:36.270Z,24.08
2022-12-22T20:10:08.902Z,24.85
2022-12-22T20:12:44.465Z,25.45
2022-12-22T20:15:19.323Z,28.90
2022-12-22T20:17:53.867Z,22.63
2022-12-22T20:20:32.629Z,22.27
2022-12-22T20:23:10.997Z,23.77
2022-12-22T20:25:46.320Z,25.20
2022-12-22T20:28:21.116Z,23.58
2022-12-22T20:30:54.753Z,36.40
2022-12-22T20:33:27.786Z,112.40
2022-12-22T20:36:02.298Z,49.75
2022-12-22T20:38:36.977Z,45.03
2022-12-22T20:41:10.104Z,46.72
2022-12-22T20:43:42.502Z,54.30
2022-12-22T20:46:17.952Z,63.88
2022-12-22T20:48:53.149Z,68.63
2022-12-22T20:51:28.616Z,70.65
2022-12-22T20:54:01.369Z,55.33
2022-12-22T20:56:36.207Z,45.70
2022-12-22T20:59:13.787Z,43.40
2022-12-22T21:01:47.775Z,36.25
2022-12-22T21:04:21.423Z,37.55
2022-12-22T21:06:56.172Z,36.72
2022-12-22T21:09:28.557Z,40.15
2022-12-22T21:12:00.908Z,41.17
2022-12-22T21:14:33.829Z,43.83
2022-12-22T21:17:11.659Z,44.08
2022-12-22T21:19:44.143Z,48.83
2022-12-22T21:22:17.209Z,44.92
2022-12-22T21:24:49.642Z,51.63
2022-12-22T21:27:21.996Z,54.85
2022-12-22T21:29:54.367Z,48.90
2022-12-22T21:32:26.724Z,50.53
2022-12-22T21:35:04.203Z,46.10
2022-12-22T21:37:41.683Z,39.50
2022-12-22T21:40:19.931Z,37.70
2022-12-22T21:42:53.725Z,28.83
2022-12-22T21:45:28.619Z,35.67
2022-12-22T21:48:01.497Z,34.22
2022-12-22T21:50:34.826Z,32.55
2022-12-22T21:53:08.544Z,21.05
2022-12-22T21:55:41.329Z,21.83
2022-12-22T21:58:14.413Z,24.52
2022-12-22T22:00:48.333Z,27.05
2022-12-22T22:03:20.695Z,28.80
2022-12-22T22:05:53.075Z,37.58
2022-12-22T22:08:26.027Z,45.85
2022-12-22T22:10:58.862Z,46.35
2022-12-22T22:13:31.203Z,38.88
2022-12-22T22:16:03.951Z,33.10
2022-12-22T22:18:36.279Z,32.88
2022-12-22T22:21:09.277Z,29.98
2022-12-22T22:23:42.623Z,30.63
2022-12-22T22:26:14.968Z,23.40
2022-12-22T22:28:47.273Z,28.50
2022-12-22T22:31:19.731Z,26.52
2022-12-22T22:33:52.066Z,22.77
2022-12-22T22:36:24.565Z,21.20
2022-12-22T22:38:57.569Z,20.50
2022-12-22T22:41:30.609Z,22.70
2022-12-22T22:44:02.942Z,19.55
2022-12-22T22:46:35.353Z,19.92
2022-12-22T22:49:07.762Z,24.00
2022-12-22T22:51:40.149Z,26.42
2022-12-22T22:54:13.366Z,16.10
2022-12-22T22:56:45.746Z,19.70
2022-12-22T22:59:18.043Z,12.90
2022-12-22T23:01:50.465Z,14.60
2022-12-22T23:04:22.850Z,13.93
2022-12-22T23:06:55.249Z,18.65
2022-12-22T23:09:28.336Z,14.75
2022-12-22T23:12:00.891Z,9.75
2022-12-22T23:14:33.351Z,12.07
2022-12-22T23:17:06.074Z,14.27
2022-12-22T23:19:38.480Z,11.45
2022-12-22T23:24:51.429Z,13.60
2022-12-22T23:27:23.844Z,17.45
2022-12-22T23:29:56.189Z,14.05
2022-12-22T23:32:28.626Z,13.13
2022-12-22T23:35:00.938Z,14.18
2022-12-22T23:37:33.353Z,14.43
2022-12-22T23:43:00.228Z,27.08
2022-12-22T23:45:33.241Z,23.83
2022-12-22T23:48:06.687Z,24.08
2022-12-22T23:50:38.989Z,18.13
2022-12-22T23:53:11.388Z,20.58
2022-12-22T23:55:44.726Z,20.73
2022-12-22T23:58:17.534Z,20.33
